Goodyear, AZ

2:09 AM MST on August 30, 2014 (GMT -0700)
Phoenix Goodyear | Change Station
CLOSE
Current Station
Airport
Location: Goodyear,
Elevation: 968 ft
Nearby Weather Stations

Elev 968 ft 33.42 °N, 112.37 °W | Updated 5 hours ago

Partly Cloudy
Partly Cloudy
91 °F
Feels Like 91 °F
N
6
Wind Variable Wind from Variable

Today
High -- | Low -- °F
--% Chance of Precip.
Yesterday
High -- | Low -- °F
Precip. -- in
6:02 AM 6:57 PM
Waxing Crescent, 20% visible
Pressure 29.75 in
Visibility 10.0 miles
Clouds Few 20000 ft
Dew Point 52 °F
Humidity 26%
Rainfall 0.00 in
Snow Depth Not available.
UV 0 out of 12
Pollen 5.60 out of 12
PM2.5 Good
Flu Activity Not available.
METAR KGYR 300347Z VRB05KT 10SM FEW200 33/11 A2975 RMK LAST

More Conditions Fewer Conditions

Pressure 29.75 in
Visibility 10.0 miles
Clouds Few 20000 ft
Dew Point 52 °F
Humidity 26%
Rainfall 0.00 in
Snow Depth Not available.
UV 0 out of 12
Pollen 5.60 out of 12
PM2.5 Good
Flu Activity Not available.
METAR KGYR 300347Z VRB05KT 10SM FEW200 33/11 A2975 RMK LAST

More Conditions Fewer Conditions

10-Day Weather Forecast

Almanac

Astronomy

Aug. 30, 2014 Rise Set
Actual Time 6:02 AM MST 6:57 PM MST
Civil Twilight 5:36 AM MST 7:22 PM MST
Nautical Twilight 5:06 AM MST 7:52 PM MST
Astronomical Twilight 4:35 AM MST 8:23 PM MST
Moon 10:37 AM MST 9:50 PM MST
Length of Visible Light 13h 45m
Length of Day
12h 54m
Tomorrow will be 1m 58s shorter.
Waxing Crescent, 20% of the Moon is Illuminated
Today
Waxing Crescent
Sep 2
First Quarter
Sep 8
Full
Sep 15
Last Quarter
Sep 24
New

Today's Extremes

State Highs State Lows

Community

WunderPhotos

Upload Photos

1,748,474 photos uploaded!

Nearby

Air Quality

  Air Quality AQ Index Pollutant
Yesterday Moderate
OZONE
Yesterday Good
PM10
Current Good
PM2.5
Saturday Moderate
OZONE
Saturday Good
PM10
Saturday Good
CO
Sunday Moderate
OZONE
Sunday Good
PM10
Sunday Good
CO

Snow Depth

Station Depth Elevation
Workman Creek 1 in 6900 ft
Promontory 0 in 7930 ft
Mormon Mountain 0 in 7500 ft
White Horse Lake 1 in 7180 ft
Snowslide Canyon 0 in 9730 ft

Earthquake Activity

City Distance Mag. Time & Date
No recent earthquake activity has been reported nearby.
Minimum magnitude displayed is 2.5.

Coastal Water Temperatures

Place Temperature
No Stations Reporting

Nearby Weather Stations